createdAt,value
2018-10-09T00:01:31.064Z,9.00
2018-10-09T00:03:59.330Z,9.00
2018-10-09T00:06:27.790Z,8.87
2018-10-09T00:08:56.050Z,8.71
2018-10-09T00:11:24.325Z,8.81
2018-10-09T00:13:52.606Z,8.79
2018-10-09T00:16:20.874Z,8.71
2018-10-09T00:18:49.198Z,8.80
2018-10-09T00:21:17.479Z,8.79
2018-10-09T00:23:45.782Z,8.75
2018-10-09T00:26:14.360Z,8.73
2018-10-09T00:28:42.598Z,8.66
2018-10-09T00:31:10.846Z,8.64
2018-10-09T00:33:39.128Z,8.74
2018-10-09T00:36:07.610Z,8.71
2018-10-09T00:38:35.910Z,8.61
2018-10-09T00:41:04.195Z,8.57
2018-10-09T00:43:32.502Z,8.58
2018-10-09T00:46:00.807Z,8.51
2018-10-09T00:48:29.111Z,8.54
2018-10-09T00:50:57.374Z,8.58
2018-10-09T00:53:25.650Z,8.52
2018-10-09T00:55:54.111Z,8.60
2018-10-09T00:58:22.432Z,8.63
2018-10-09T01:00:50.687Z,8.51
2018-10-09T01:03:18.974Z,8.59
2018-10-09T01:05:47.230Z,8.45
2018-10-09T01:08:15.513Z,8.50
2018-10-09T01:10:44.095Z,8.40
2018-10-09T01:13:12.366Z,8.36
2018-10-09T01:15:40.627Z,8.39
2018-10-09T01:18:08.914Z,8.36
2018-10-09T01:20:37.174Z,8.23
2018-10-09T01:23:06.522Z,8.24
2018-10-09T01:25:35.654Z,8.16
2018-10-09T01:28:04.062Z,8.15
2018-10-09T01:30:33.278Z,8.02
2018-10-09T01:33:02.096Z,8.01
2018-10-09T01:35:30.375Z,8.00
2018-10-09T01:37:58.667Z,8.06
2018-10-09T01:40:26.959Z,8.08
2018-10-09T01:42:55.274Z,8.11
2018-10-09T01:45:23.591Z,8.10
2018-10-09T01:47:51.872Z,8.08
2018-10-09T01:50:20.147Z,8.03
2018-10-09T01:52:48.461Z,7.96
2018-10-09T01:55:16.734Z,7.92
2018-10-09T01:57:45.370Z,7.89
2018-10-09T02:00:13.942Z,7.94
2018-10-09T02:02:42.374Z,7.89
2018-10-09T02:05:10.674Z,7.84
2018-10-09T02:07:38.998Z,7.73
2018-10-09T02:10:07.325Z,7.75
2018-10-09T02:12:35.598Z,7.73
2018-10-09T02:15:04.011Z,7.79
2018-10-09T02:17:32.304Z,7.89
2018-10-09T02:20:00.591Z,7.78
2018-10-09T02:22:28.870Z,7.74
2018-10-09T02:24:57.132Z,7.83
2018-10-09T02:27:25.411Z,7.83
2018-10-09T02:29:53.702Z,7.66
2018-10-09T02:32:21.976Z,7.67
2018-10-09T02:34:50.255Z,7.69
2018-10-09T02:37:18.545Z,7.80
2018-10-09T02:39:46.818Z,7.79
2018-10-09T02:42:15.082Z,7.80
2018-10-09T02:44:43.366Z,7.68
2018-10-09T02:47:11.630Z,7.80
2018-10-09T02:49:39.964Z,7.85
2018-10-09T02:52:08.178Z,7.82
2018-10-09T02:54:36.461Z,7.95
2018-10-09T02:57:04.756Z,7.87
2018-10-09T02:59:33.035Z,7.97
2018-10-09T03:02:01.290Z,7.99
2018-10-09T03:04:29.578Z,8.05
2018-10-09T03:06:58.798Z,7.85
2018-10-09T03:09:27.078Z,7.77
2018-10-09T03:11:55.344Z,7.78
2018-10-09T03:14:23.626Z,7.70
2018-10-09T03:16:51.878Z,7.77
2018-10-09T03:19:20.151Z,7.79
2018-10-09T03:21:48.410Z,7.84
2018-10-09T03:24:16.702Z,7.78
2018-10-09T03:26:44.966Z,7.64
2018-10-09T03:29:13.246Z,7.73
2018-10-09T03:31:41.514Z,7.70
2018-10-09T03:34:09.806Z,7.81
2018-10-09T03:36:38.062Z,7.85
2018-10-09T03:39:07.904Z,7.82
2018-10-09T03:41:36.170Z,7.79
2018-10-09T03:44:04.478Z,7.73
2018-10-09T03:46:32.758Z,7.74
2018-10-09T03:49:01.065Z,7.73
2018-10-09T03:51:29.326Z,7.77
2018-10-09T03:53:57.602Z,7.78
2018-10-09T03:56:25.881Z,7.72
2018-10-09T03:58:54.150Z,7.69
2018-10-09T04:01:22.406Z,7.60
2018-10-09T04:03:51.666Z,7.64
2018-10-09T04:06:19.938Z,7.67
2018-10-09T04:08:48.226Z,7.62
2018-10-09T04:11:16.509Z,7.60
2018-10-09T04:13:44.970Z,7.52
2018-10-09T04:16:13.262Z,7.60
2018-10-09T04:18:42.103Z,7.47
2018-10-09T04:21:10.367Z,7.42
2018-10-09T04:23:39.148Z,7.49
2018-10-09T04:26:07.903Z,7.46
2018-10-09T04:28:36.198Z,7.44
2018-10-09T04:31:04.471Z,7.41
2018-10-09T04:33:32.858Z,7.37
2018-10-09T04:36:01.184Z,7.30
2018-10-09T04:38:29.646Z,7.32
2018-10-09T04:40:57.947Z,7.34
2018-10-09T04:43:26.210Z,7.29
2018-10-09T04:45:54.510Z,7.41
2018-10-09T04:48:22.782Z,7.45
2018-10-09T04:50:51.062Z,7.45
2018-10-09T04:53:19.322Z,7.40
2018-10-09T04:55:47.614Z,7.54
2018-10-09T04:58:15.870Z,7.55
2018-10-09T05:00:44.222Z,7.65
2018-10-09T05:03:12.429Z,7.71
2018-10-09T05:05:40.719Z,7.72
2018-10-09T05:08:08.983Z,7.84
2018-10-09T05:10:37.274Z,7.80
2018-10-09T05:13:05.551Z,7.74
2018-10-09T05:15:33.835Z,7.80
2018-10-09T05:18:02.107Z,7.72
2018-10-09T05:20:30.388Z,7.77
2018-10-09T05:22:58.651Z,7.71
2018-10-09T05:25:26.931Z,7.58
2018-10-09T05:27:55.210Z,7.58
2018-10-09T05:30:23.486Z,7.53
2018-10-09T05:32:51.755Z,7.52
2018-10-09T05:35:20.041Z,7.55
2018-10-09T05:37:48.365Z,7.53
2018-10-09T05:40:17.014Z,7.53
2018-10-09T05:42:45.294Z,7.60
2018-10-09T05:45:13.583Z,7.62
2018-10-09T05:47:41.938Z,7.63
2018-10-09T05:50:11.177Z,7.74
2018-10-09T05:52:39.647Z,7.76
2018-10-09T05:55:08.791Z,7.86
2018-10-09T05:57:37.102Z,7.92
2018-10-09T06:00:05.530Z,8.09
2018-10-09T06:02:33.798Z,8.25
2018-10-09T06:05:02.071Z,8.39
2018-10-09T06:07:30.323Z,8.39
2018-10-09T06:09:58.594Z,8.52
2018-10-09T06:12:26.842Z,8.56
2018-10-09T06:14:55.131Z,8.79
2018-10-09T06:17:23.390Z,8.73
2018-10-09T06:19:51.678Z,8.95
2018-10-09T06:22:19.978Z,9.22
2018-10-09T06:24:48.222Z,9.32
2018-10-09T06:27:16.499Z,9.67
2018-10-09T06:29:44.787Z,9.77
2018-10-09T06:32:13.048Z,9.93
2018-10-09T06:34:41.330Z,10.05
2018-10-09T06:37:09.663Z,10.07
2018-10-09T06:39:37.894Z,10.28
2018-10-09T06:42:06.198Z,10.47
2018-10-09T06:44:34.470Z,10.85
2018-10-09T06:47:02.762Z,11.03
2018-10-09T06:49:31.054Z,11.33
2018-10-09T06:51:59.342Z,11.58
2018-10-09T06:54:27.676Z,12.12
2018-10-09T06:56:55.934Z,13.38
2018-10-09T06:59:24.196Z,14.62
2018-10-09T07:01:52.501Z,15.07
2018-10-09T07:04:20.777Z,15.74
2018-10-09T07:06:49.081Z,15.85
2018-10-09T07:09:17.371Z,16.11
2018-10-09T07:11:45.664Z,17.15
2018-10-09T07:14:13.942Z,17.94
2018-10-09T07:16:42.242Z,18.54
2018-10-09T07:19:10.514Z,18.28
2018-10-09T07:21:38.806Z,19.31
2018-10-09T07:24:07.079Z,19.26
2018-10-09T07:26:35.372Z,19.04
2018-10-09T07:29:03.671Z,19.96
2018-10-09T07:31:31.956Z,20.32
2018-10-09T07:34:00.246Z,20.17
2018-10-09T07:36:28.558Z,20.28
2018-10-09T07:38:57.055Z,20.23
2018-10-09T07:41:25.331Z,19.79
2018-10-09T07:43:53.700Z,18.92
2018-10-09T07:46:33.931Z,19.26
2018-10-09T07:49:02.238Z,19.36
2018-10-09T07:51:30.663Z,19.83
2018-10-09T07:53:58.959Z,21.05
2018-10-09T07:56:27.287Z,21.40
2018-10-09T07:58:55.815Z,22.99
2018-10-09T08:01:24.336Z,23.97
2018-10-09T08:03:52.651Z,24.45
2018-10-09T08:06:21.059Z,25.22
2018-10-09T08:08:49.383Z,26.07
2018-10-09T08:11:17.715Z,26.87
2018-10-09T08:13:46.047Z,27.64
2018-10-09T08:16:14.493Z,28.12
2018-10-09T08:18:42.959Z,28.57
2018-10-09T08:21:11.363Z,27.87
2018-10-09T08:23:39.663Z,29.33
2018-10-09T08:26:07.944Z,29.96
2018-10-09T08:28:36.260Z,31.69
2018-10-09T08:31:04.551Z,31.31
2018-10-09T08:33:33.264Z,32.89
2018-10-09T08:36:01.543Z,32.66
2018-10-09T08:38:29.903Z,34.11
2018-10-09T08:40:58.796Z,32.33
2018-10-09T08:43:27.110Z,31.49
2018-10-09T08:45:55.403Z,30.84
2018-10-09T08:48:23.730Z,28.58
2018-10-09T08:50:52.153Z,30.69
2018-10-09T08:53:20.475Z,31.61
2018-10-09T08:55:48.759Z,25.37
2018-10-09T08:58:17.082Z,26.63
2018-10-09T09:00:45.702Z,29.32
2018-10-09T09:03:14.002Z,30.85
2018-10-09T09:05:42.296Z,31.62
2018-10-09T09:08:10.607Z,31.62
2018-10-09T09:10:39.055Z,29.00
2018-10-09T09:13:07.392Z,28.98
2018-10-09T09:15:35.823Z,27.49
2018-10-09T09:18:04.136Z,27.73
2018-10-09T09:20:32.478Z,27.59
2018-10-09T09:23:00.771Z,29.79
2018-10-09T09:25:29.084Z,28.52
2018-10-09T09:27:57.379Z,28.94
2018-10-09T09:30:25.687Z,29.65
2018-10-09T09:32:53.981Z,30.96
2018-10-09T09:35:22.429Z,30.61
2018-10-09T09:37:51.452Z,28.31
2018-10-09T09:40:19.784Z,28.46
2018-10-09T09:42:48.082Z,28.27
2018-10-09T09:45:16.739Z,29.47
2018-10-09T09:47:45.415Z,30.97
2018-10-09T09:50:13.747Z,30.57
2018-10-09T09:52:42.076Z,32.60
2018-10-09T09:55:10.396Z,30.69
2018-10-09T09:57:38.723Z,32.63
2018-10-09T10:00:11.476Z,32.04
2018-10-09T10:02:39.748Z,33.11
2018-10-09T10:05:08.071Z,32.93
2018-10-09T10:07:36.392Z,34.10
2018-10-09T10:10:05.151Z,33.10
2018-10-09T10:12:33.423Z,34.58
2018-10-09T10:15:01.743Z,36.19
2018-10-09T10:17:30.031Z,35.24
2018-10-09T10:19:58.343Z,35.26
2018-10-09T10:22:26.638Z,33.95
2018-10-09T10:24:54.947Z,31.88
2018-10-09T10:27:23.247Z,31.47
2018-10-09T10:29:51.552Z,32.80
2018-10-09T10:32:19.863Z,32.25
2018-10-09T10:34:48.191Z,32.65
2018-10-09T10:37:16.519Z,30.95
2018-10-09T10:39:44.880Z,33.03
2018-10-09T10:42:13.342Z,37.60
2018-10-09T10:44:41.600Z,35.13
2018-10-09T10:47:09.894Z,36.18
2018-10-09T10:49:38.202Z,35.08
2018-10-09T10:52:06.525Z,38.44
2018-10-09T10:54:34.856Z,37.36
2018-10-09T10:57:03.163Z,38.59
2018-10-09T10:59:31.492Z,37.28
2018-10-09T11:01:59.796Z,35.02
2018-10-09T11:04:28.116Z,36.19
2018-10-09T11:06:56.427Z,35.49
2018-10-09T11:09:24.775Z,33.56
2018-10-09T11:11:53.071Z,31.24
2018-10-09T11:14:21.364Z,30.72
2018-10-09T11:16:49.675Z,29.35
2018-10-09T11:19:17.980Z,29.84
2018-10-09T11:21:46.355Z,30.73
2018-10-09T11:24:14.606Z,30.35
2018-10-09T11:26:43.108Z,32.20
2018-10-09T11:29:11.431Z,34.11
2018-10-09T11:31:39.767Z,36.37
2018-10-09T11:34:08.076Z,35.99
2018-10-09T11:36:36.387Z,39.28
2018-10-09T11:39:06.498Z,38.96
2018-10-09T11:41:34.803Z,39.57
2018-10-09T11:44:03.096Z,39.07
2018-10-09T11:46:31.532Z,40.37
2018-10-09T11:48:59.847Z,37.98
2018-10-09T11:51:28.180Z,37.29
2018-10-09T11:53:56.473Z,37.26
2018-10-09T11:56:24.774Z,35.97
2018-10-09T11:58:53.077Z,35.85
2018-10-09T12:01:21.396Z,35.31
2018-10-09T12:03:49.687Z,34.07
2018-10-09T12:06:18.371Z,32.95
2018-10-09T12:08:46.659Z,32.58
2018-10-09T12:11:14.995Z,31.94
2018-10-09T12:13:43.563Z,31.52
2018-10-09T12:16:11.888Z,32.16
2018-10-09T12:18:40.195Z,32.28
2018-10-09T12:21:08.572Z,32.34
2018-10-09T12:23:36.903Z,30.64
2018-10-09T12:26:05.231Z,30.20
2018-10-09T12:28:33.532Z,28.59
2018-10-09T12:31:01.840Z,29.66
2018-10-09T12:33:30.151Z,29.08
2018-10-09T12:35:58.442Z,28.45
2018-10-09T12:38:26.800Z,27.93
2018-10-09T12:40:55.062Z,28.48
2018-10-09T12:43:23.327Z,29.42
2018-10-09T12:45:51.631Z,30.00
2018-10-09T12:48:19.967Z,30.28
2018-10-09T12:50:48.356Z,30.99
2018-10-09T12:53:16.655Z,31.15
2018-10-09T12:55:44.928Z,31.56
2018-10-09T12:58:13.399Z,30.20
2018-10-09T13:00:41.679Z,29.76
2018-10-09T13:03:10.012Z,30.50
2018-10-09T13:05:38.282Z,32.92
2018-10-09T13:08:06.696Z,34.86
2018-10-09T13:10:34.959Z,34.48
2018-10-09T13:13:03.272Z,31.37
2018-10-09T13:15:31.549Z,30.93
2018-10-09T13:17:59.847Z,29.89
2018-10-09T13:20:28.148Z,29.26
2018-10-09T13:22:56.489Z,28.95
2018-10-09T13:25:24.859Z,28.02
2018-10-09T13:27:53.151Z,30.11
2018-10-09T13:30:21.418Z,32.48
2018-10-09T13:32:49.703Z,32.83
2018-10-09T13:35:18.008Z,32.53
2018-10-09T13:37:46.307Z,33.06
2018-10-09T13:40:14.572Z,31.21
2018-10-09T13:42:42.862Z,30.49
2018-10-09T13:45:11.144Z,30.65
2018-10-09T13:47:39.571Z,30.53
2018-10-09T13:50:07.729Z,29.95
2018-10-09T13:52:36.015Z,28.96
2018-10-09T13:55:04.439Z,29.07
2018-10-09T13:57:32.724Z,29.87
2018-10-09T14:00:00.998Z,28.84
2018-10-09T14:02:29.279Z,29.01
2018-10-09T14:04:57.559Z,28.36
2018-10-09T14:07:25.891Z,30.16
2018-10-09T14:09:54.147Z,31.57
2018-10-09T14:12:22.439Z,32.38
2018-10-09T14:14:50.727Z,30.75
2018-10-09T14:17:19.032Z,31.20
2018-10-09T14:19:47.303Z,30.67
2018-10-09T14:22:15.616Z,30.83
2018-10-09T14:24:43.918Z,32.20
2018-10-09T14:27:12.176Z,31.40
2018-10-09T14:29:40.575Z,31.54
2018-10-09T14:32:08.847Z,31.43
2018-10-09T14:34:37.127Z,29.69
2018-10-09T14:37:05.599Z,30.94
2018-10-09T14:39:33.902Z,31.72
2018-10-09T14:42:02.187Z,31.73
2018-10-09T14:44:30.478Z,30.25
2018-10-09T14:46:58.780Z,30.86
2018-10-09T14:49:27.059Z,31.20
2018-10-09T14:51:55.324Z,30.71
2018-10-09T14:54:23.611Z,30.38
2018-10-09T14:56:51.879Z,28.78
2018-10-09T14:59:20.152Z,28.90
2018-10-09T15:01:48.428Z,29.11
2018-10-09T15:04:16.731Z,27.62
2018-10-09T15:06:45.252Z,29.01
2018-10-09T15:09:14.383Z,28.65
2018-10-09T15:11:43.279Z,29.07
2018-10-09T15:14:11.767Z,29.24
2018-10-09T15:16:40.313Z,28.55
2018-10-09T15:19:08.975Z,27.91
2018-10-09T15:21:37.385Z,26.63
2018-10-09T15:24:05.688Z,26.36
2018-10-09T15:26:33.948Z,27.26
2018-10-09T15:29:02.432Z,27.69
2018-10-09T15:31:30.727Z,28.25
2018-10-09T15:33:59.003Z,28.52
2018-10-09T15:36:27.287Z,28.54
2018-10-09T15:38:55.567Z,28.96
2018-10-09T15:41:24.090Z,27.81
2018-10-09T15:43:52.392Z,27.65
2018-10-09T15:46:21.064Z,27.60
2018-10-09T15:48:49.336Z,27.62
2018-10-09T15:51:17.672Z,26.99
2018-10-09T15:53:45.972Z,25.94
2018-10-09T15:56:14.251Z,25.14
2018-10-09T15:58:42.519Z,24.22
2018-10-09T16:01:10.795Z,23.18
2018-10-09T16:03:39.099Z,22.59
2018-10-09T16:06:07.727Z,22.14
2018-10-09T16:08:36.029Z,21.80
2018-10-09T16:11:04.306Z,21.46
2018-10-09T16:13:32.619Z,21.22
2018-10-09T16:16:00.900Z,21.16
2018-10-09T16:18:29.224Z,21.15
2018-10-09T16:20:57.492Z,21.05
2018-10-09T16:23:25.779Z,20.61
2018-10-09T16:25:54.075Z,20.11
2018-10-09T16:28:22.704Z,19.74
2018-10-09T16:30:51.012Z,19.55
2018-10-09T16:33:19.295Z,19.37
2018-10-09T16:35:47.583Z,19.14
2018-10-09T16:38:15.869Z,18.92
2018-10-09T16:40:44.183Z,18.73
2018-10-09T16:43:12.487Z,18.51
2018-10-09T16:45:40.776Z,18.54
2018-10-09T16:48:09.075Z,18.26
2018-10-09T16:50:37.384Z,18.26
2018-10-09T16:53:07.157Z,18.08
2018-10-09T16:55:35.415Z,18.01
2018-10-09T16:58:03.707Z,17.78
2018-10-09T17:00:32.061Z,17.65
2018-10-09T17:03:00.283Z,17.60
2018-10-09T17:05:28.575Z,17.45
2018-10-09T17:07:56.855Z,17.20
2018-10-09T17:10:25.159Z,16.72
2018-10-09T17:12:53.524Z,16.36
2018-10-09T17:15:22.912Z,16.17
2018-10-09T17:17:51.136Z,15.95
2018-10-09T17:20:19.424Z,15.81
2018-10-09T17:22:47.695Z,15.67
2018-10-09T17:25:16.073Z,15.54
2018-10-09T17:27:44.338Z,15.38
2018-10-09T17:30:12.647Z,15.17
2018-10-09T17:32:40.928Z,15.02
2018-10-09T17:35:09.303Z,15.06
2018-10-09T17:37:37.561Z,15.20
2018-10-09T17:40:05.874Z,15.12
2018-10-09T17:42:34.139Z,14.99
2018-10-09T17:45:02.475Z,14.98
2018-10-09T17:47:31.197Z,15.23
2018-10-09T17:49:59.827Z,15.05
2018-10-09T17:52:28.103Z,15.25
2018-10-09T17:54:56.493Z,15.29
2018-10-09T17:57:26.276Z,15.26
2018-10-09T17:59:56.887Z,15.33
2018-10-09T18:02:26.209Z,15.28
2018-10-09T18:04:55.902Z,15.21
2018-10-09T18:07:24.272Z,15.37
2018-10-09T18:09:53.367Z,15.44
2018-10-09T18:12:21.851Z,15.58
2018-10-09T18:14:50.487Z,15.70
2018-10-09T18:17:18.711Z,15.45
2018-10-09T18:19:46.991Z,15.39
2018-10-09T18:22:15.265Z,15.26
2018-10-09T18:24:43.523Z,15.08
2018-10-09T18:27:11.816Z,14.99
2018-10-09T18:29:40.102Z,14.86
2018-10-09T18:32:08.403Z,14.78
2018-10-09T18:34:36.719Z,14.62
2018-10-09T18:37:05.034Z,14.50
2018-10-09T18:39:33.303Z,14.29
2018-10-09T18:42:01.637Z,14.13
2018-10-09T18:44:29.871Z,14.00
2018-10-09T18:48:00.407Z,14.00
2018-10-09T18:50:28.703Z,13.63
2018-10-09T18:52:56.972Z,13.50
2018-10-09T18:55:25.267Z,13.43
2018-10-09T18:57:53.527Z,13.23
2018-10-09T19:00:21.817Z,13.01
2018-10-09T19:02:50.414Z,13.02
2018-10-09T19:05:18.691Z,12.98
2018-10-09T19:07:46.992Z,12.99
2018-10-09T19:10:15.260Z,12.92
2018-10-09T19:12:43.559Z,12.88
2018-10-09T19:15:11.833Z,12.79
2018-10-09T19:17:40.118Z,12.79
2018-10-09T19:20:08.417Z,12.68
2018-10-09T19:22:36.740Z,12.46
2018-10-09T19:25:05.071Z,12.21
2018-10-09T19:27:33.351Z,12.15
2018-10-09T19:30:01.778Z,12.12
2018-10-09T19:32:30.116Z,12.06
2018-10-09T19:34:58.356Z,11.99
2018-10-09T19:37:26.643Z,12.00
2018-10-09T19:39:54.924Z,11.95
2018-10-09T19:42:23.211Z,11.87
2018-10-09T19:44:51.483Z,11.77
2018-10-09T19:47:20.256Z,11.76
2018-10-09T19:49:48.529Z,11.64
2018-10-09T19:52:16.979Z,11.55
2018-10-09T19:55:00.208Z,11.43
2018-10-09T19:57:28.504Z,11.36
2018-10-09T19:59:56.855Z,11.43
2018-10-09T20:02:25.164Z,11.32
2018-10-09T20:04:53.443Z,11.48
2018-10-09T20:07:21.752Z,11.51
2018-10-09T20:09:50.019Z,11.29
2018-10-09T20:12:18.315Z,11.22
2018-10-09T20:14:46.579Z,11.15
2018-10-09T20:17:14.899Z,11.10
2018-10-09T20:19:43.183Z,11.14
2018-10-09T20:22:11.890Z,11.06
2018-10-09T20:24:40.443Z,11.05
2018-10-09T20:27:08.759Z,11.21
2018-10-09T20:29:37.015Z,11.25
2018-10-09T20:32:05.319Z,11.18
2018-10-09T20:34:33.576Z,11.11
2018-10-09T20:37:01.844Z,11.28
2018-10-09T20:39:30.135Z,11.24
2018-10-09T20:41:58.479Z,11.15
2018-10-09T20:44:27.328Z,10.99
2018-10-09T20:46:55.604Z,10.87
2018-10-09T20:49:23.884Z,10.75
2018-10-09T20:51:52.167Z,10.72
2018-10-09T20:54:20.439Z,10.71
2018-10-09T20:56:48.708Z,10.76
2018-10-09T20:59:17.023Z,10.62
2018-10-09T21:01:45.352Z,10.60
2018-10-09T21:04:13.655Z,10.60
2018-10-09T21:06:41.987Z,10.56
2018-10-09T21:09:10.275Z,10.56
2018-10-09T21:11:38.549Z,10.53
2018-10-09T21:14:06.900Z,10.52
2018-10-09T21:16:35.551Z,10.53
2018-10-09T21:19:03.840Z,10.47
2018-10-09T21:21:32.120Z,10.45
2018-10-09T21:24:00.399Z,10.38
2018-10-09T21:26:28.659Z,10.34
2018-10-09T21:28:57.051Z,10.47
2018-10-09T21:31:25.323Z,10.27
2018-10-09T21:33:53.615Z,10.30
2018-10-09T21:36:21.915Z,10.33
2018-10-09T21:38:50.179Z,10.25
2018-10-09T21:41:18.447Z,10.23
2018-10-09T21:43:46.727Z,10.18
2018-10-09T21:46:14.987Z,10.21
2018-10-09T21:48:43.287Z,10.22
2018-10-09T21:51:11.544Z,10.28
2018-10-09T21:53:39.819Z,10.23
2018-10-09T21:56:08.096Z,10.39
2018-10-09T21:58:36.378Z,10.26
2018-10-09T22:01:10.842Z,10.36
2018-10-09T22:03:39.446Z,10.36
2018-10-09T22:06:08.903Z,10.29
2018-10-09T22:08:37.279Z,10.46
2018-10-09T22:11:06.402Z,10.34
2018-10-09T22:13:34.671Z,10.42
2018-10-09T22:16:02.967Z,10.42
2018-10-09T22:18:31.247Z,10.46
2018-10-09T22:20:59.951Z,10.50
2018-10-09T22:23:28.215Z,10.40
2018-10-09T22:25:56.519Z,10.49
2018-10-09T22:28:24.821Z,10.45
2018-10-09T22:30:53.107Z,10.41
2018-10-09T22:33:21.379Z,10.37
2018-10-09T22:35:50.076Z,10.39
2018-10-09T22:38:18.364Z,10.26
2018-10-09T22:40:47.035Z,10.26
2018-10-09T22:43:15.291Z,10.25
2018-10-09T22:45:43.575Z,10.20
2018-10-09T22:48:11.830Z,10.15
2018-10-09T22:50:40.127Z,10.16
2018-10-09T22:53:08.752Z,10.16
2018-10-09T22:55:37.056Z,10.15
2018-10-09T22:58:05.509Z,10.26
2018-10-09T23:00:33.907Z,10.14
2018-10-09T23:03:02.345Z,10.04
2018-10-09T23:05:30.644Z,10.00
2018-10-09T23:07:58.899Z,9.87
2018-10-09T23:10:27.213Z,9.91
2018-10-09T23:12:55.511Z,9.88
2018-10-09T23:15:24.260Z,9.79
2018-10-09T23:17:52.522Z,9.88
2018-10-09T23:20:20.806Z,9.83
2018-10-09T23:22:49.083Z,9.74
2018-10-09T23:25:17.367Z,9.69
2018-10-09T23:27:45.680Z,9.66
2018-10-09T23:30:13.959Z,9.57
2018-10-09T23:32:42.240Z,9.56
2018-10-09T23:35:10.503Z,9.62
2018-10-09T23:37:38.796Z,9.45
2018-10-09T23:40:07.286Z,9.42
2018-10-09T23:42:35.694Z,9.37
2018-10-09T23:45:04.004Z,9.32
2018-10-09T23:47:32.464Z,9.46
2018-10-09T23:50:00.723Z,9.34
2018-10-09T23:52:29.008Z,9.37
2018-10-09T23:54:57.291Z,9.24
2018-10-09T23:57:25.636Z,9.31
2018-10-09T23:59:53.875Z,9.26
